Time;durP1;ratioP1;P1;durP2;ratioP2;P2;SDS_P1;SDS_P2;PMS_P1;PMS_P2;Temp;Humidity;BMP_temperature;BMP_pressure;BME280_temperature;BME280_humidity;BME280_pressure;Samples;Min_cycle;Max_cycle;Signal;HPM_P1;HPM_P2
2023/10/03 00:23:53;;;;;;;1999.90;999.90;;;;;;;;;;5914395;22;20237;-70
2023/10/03 00:26:39;;;;;;;1999.90;999.90;;;;;;;;;;5006222;28;20214;-70
2023/10/03 00:29:29;;;;;;;1999.90;999.90;;;;;;;;;;5004316;28;20841;-70
2023/10/03 00:32:14;;;;;;;1999.90;999.90;;;;;;;;;;5001702;28;20265;-70
2023/10/03 00:34:59;;;;;;;1999.90;999.90;;;;;;;;;;4996738;28;20654;-70
2023/10/03 00:37:46;;;;;;;1999.90;999.90;;;;;;;;;;5010379;28;21021;-70
2023/10/03 00:40:32;;;;;;;1999.90;999.90;;;;;;;;;;5008847;28;20695;-69
2023/10/03 00:43:17;;;;;;;1999.90;999.90;;;;;;;;;;5005123;28;20211;-69
2023/10/03 00:46:03;;;;;;;1999.90;999.90;;;;;;;;;;4997828;28;20293;-71
2023/10/03 00:48:48;;;;;;;1999.90;999.90;;;;;;;;;;5001296;28;20211;-70
2023/10/03 00:51:35;;;;;;;1999.90;999.90;;;;;;;;;;5003933;28;20704;-69
2023/10/03 00:54:20;;;;;;;1999.90;999.90;;;;;;;;;;5011710;28;20233;-70
2023/10/03 00:57:08;;;;;;;1999.90;999.90;;;;;;;;;;5012078;28;20778;-70
2023/10/03 00:59:57;;;;;;;1999.90;999.90;;;;;;;;;;5011845;28;20202;-70
2023/10/03 01:02:46;;;;;;;1999.90;999.90;;;;;;;;;;5006248;28;20695;-71
2023/10/03 01:05:32;;;;;;;1999.90;999.90;;;;;;;;;;5003478;28;20350;-69
2023/10/03 01:08:17;;;;;;;1999.90;999.90;;;;;;;;;;4989907;28;20228;-70
2023/10/03 01:11:04;;;;;;;1999.90;999.90;;;;;;;;;;4996216;28;20256;-70
2023/10/03 01:13:56;;;;;;;1999.90;999.90;;;;;;;;;;4989723;28;20803;-70
2023/10/03 01:16:41;;;;;;;1999.90;999.90;;;;;;;;;;4999752;28;20212;-71
2023/10/03 01:19:29;;;;;;;1999.90;999.90;;;;;;;;;;5003760;28;20211;-70
2023/10/03 01:22:15;;;;;;;1999.90;999.90;;;;;;;;;;5006859;28;20527;-70
2023/10/03 01:25:04;;;;;;;1999.90;999.90;;;;;;;;;;4995736;28;20238;-70
2023/10/03 01:27:49;;;;;;;1999.90;999.90;;;;;;;;;;5004442;28;20221;-70
2023/10/03 01:30:36;;;;;;;1999.90;999.90;;;;;;;;;;5008066;28;20741;-70
2023/10/03 01:33:26;;;;;;;1999.90;999.90;;;;;;;;;;4997773;28;20310;-69
2023/10/03 01:36:11;;;;;;;1999.90;999.90;;;;;;;;;;4972643;28;20682;-70
2023/10/03 01:38:56;;;;;;;1999.90;999.90;;;;;;;;;;4991630;28;20219;-70
2023/10/03 01:41:43;;;;;;;1999.90;999.90;;;;;;;;;;4980440;28;20267;-70
2023/10/03 01:44:28;;;;;;;1999.90;999.90;;;;;;;;;;5002168;28;20593;-70
2023/10/03 01:47:15;;;;;;;1999.90;999.90;;;;;;;;;;4991521;28;20211;-70
2023/10/03 01:50:00;;;;;;;1999.90;999.90;;;;;;;;;;5003780;28;20215;-70
2023/10/03 01:52:46;;;;;;;1999.90;999.90;;;;;;;;;;4995189;28;20323;-69
2023/10/03 01:55:32;;;;;;;1999.90;999.90;;;;;;;;;;5002992;28;20363;-70
2023/10/03 01:58:21;;;;;;;1999.90;999.90;;;;;;;;;;5000590;28;20219;-70
2023/10/03 02:01:06;;;;;;;1999.90;999.90;;;;;;;;;;4978131;28;20200;-69
2023/10/03 02:03:51;;;;;;;1999.90;999.90;;;;;;;;;;5004707;28;20223;-70
2023/10/03 02:06:36;;;;;;;1999.90;999.90;;;;;;;;;;4992889;28;20208;-70
2023/10/03 02:09:21;;;;;;;1999.90;999.90;;;;;;;;;;4997551;28;20357;-70
2023/10/03 02:12:07;;;;;;;1999.90;999.90;;;;;;;;;;4997182;28;20210;-70
2023/10/03 02:14:54;;;;;;;1999.90;999.90;;;;;;;;;;5004786;28;20231;-69
2023/10/03 02:17:40;;;;;;;1999.90;999.90;;;;;;;;;;4998698;28;20282;-70
2023/10/03 02:20:25;;;;;;;1999.90;999.90;;;;;;;;;;5003399;28;20218;-70
2023/10/03 02:23:11;;;;;;;1999.90;999.90;;;;;;;;;;5003037;28;20219;-70
2023/10/03 02:25:57;;;;;;;1999.90;999.90;;;;;;;;;;4990538;28;20203;-70
2023/10/03 02:28:42;;;;;;;1999.90;999.90;;;;;;;;;;4996582;28;20214;-70
2023/10/03 02:31:28;;;;;;;1999.90;999.90;;;;;;;;;;4999065;28;20790;-70
2023/10/03 02:34:14;;;;;;;1999.90;999.90;;;;;;;;;;4999525;28;20238;-71
2023/10/03 02:36:59;;;;;;;1999.90;999.90;;;;;;;;;;5002749;28;20448;-69
2023/10/03 02:39:44;;;;;;;1999.90;999.90;;;;;;;;;;4999433;28;20792;-70
2023/10/03 02:42:29;;;;;;;1999.90;999.90;;;;;;;;;;4991776;28;20215;-69
2023/10/03 02:45:17;;;;;;;1999.90;999.90;;;;;;;;;;5000694;28;20596;-70
2023/10/03 02:48:13;;;;;;;1999.90;999.90;;;;;;;;;;5005029;28;20287;-70
2023/10/03 02:50:58;;;;;;;1999.90;999.90;;;;;;;;;;5001651;28;20215;-71
2023/10/03 02:53:44;;;;;;;1999.90;999.90;;;;;;;;;;5005107;28;20358;-70
2023/10/03 02:56:29;;;;;;;1999.90;999.90;;;;;;;;;;5001515;28;20221;-70
2023/10/03 02:59:14;;;;;;;1999.90;999.90;;;;;;;;;;4998918;28;20246;-70
2023/10/03 03:01:59;;;;;;;1999.90;999.90;;;;;;;;;;4994226;28;20202;-70
2023/10/03 03:04:45;;;;;;;1999.90;999.90;;;;;;;;;;4977864;28;20313;-69
2023/10/03 03:07:32;;;;;;;1999.90;999.90;;;;;;;;;;4999122;28;20222;-70
2023/10/03 03:10:18;;;;;;;1999.90;999.90;;;;;;;;;;5013367;28;21099;-70
2023/10/03 03:13:03;;;;;;;1999.90;999.90;;;;;;;;;;5003139;28;20242;-70
2023/10/03 03:15:53;;;;;;;1999.90;999.90;;;;;;;;;;5013332;28;20218;-70
2023/10/03 03:18:40;;;;;;;1999.90;999.90;;;;;;;;;;5013252;28;20718;-70
2023/10/03 03:21:29;;;;;;;1999.90;999.90;;;;;;;;;;5008285;28;20711;-71
2023/10/03 03:24:28;;;;;;;1999.90;999.90;;;;;;;;;;4999592;28;20246;-70
2023/10/03 03:27:16;;;;;;;1999.90;999.90;;;;;;;;;;4997407;28;20214;-71
2023/10/03 03:30:33;;;;;;;1999.90;999.90;;;;;;;;;;5013245;28;20266;-72
2023/10/03 03:33:19;;;;;;;1999.90;999.90;;;;;;;;;;5008901;28;20219;-71
2023/10/03 03:36:07;;;;;;;1999.90;999.90;;;;;;;;;;5012026;28;20246;-69
2023/10/03 03:38:54;;;;;;;1999.90;999.90;;;;;;;;;;4990977;28;20215;-71
2023/10/03 03:41:41;;;;;;;1999.90;999.90;;;;;;;;;;4993419;28;20700;-71
2023/10/03 03:44:26;;;;;;;1999.90;999.90;;;;;;;;;;4987015;28;20255;-68
2023/10/03 03:47:13;;;;;;;1999.90;999.90;;;;;;;;;;4992705;28;20270;-71
2023/10/03 03:50:01;;;;;;;1999.90;999.90;;;;;;;;;;5001403;28;20223;-71
2023/10/03 03:52:46;;;;;;;1999.90;999.90;;;;;;;;;;4992919;28;20215;-71
2023/10/03 03:55:34;;;;;;;1999.90;999.90;;;;;;;;;;4991867;28;20598;-70
2023/10/03 03:58:19;;;;;;;1999.90;999.90;;;;;;;;;;4985577;28;20608;-71
2023/10/03 04:01:07;;;;;;;1999.90;999.90;;;;;;;;;;4994914;28;20291;-71
2023/10/03 04:03:54;;;;;;;1999.90;999.90;;;;;;;;;;5000632;28;20259;-72
2023/10/03 04:06:39;;;;;;;1999.90;999.90;;;;;;;;;;4992174;28;20726;-71
2023/10/03 04:09:24;;;;;;;1999.90;999.90;;;;;;;;;;4994235;28;20214;-72
2023/10/03 04:12:13;;;;;;;1999.90;999.90;;;;;;;;;;4991988;28;20753;-71
2023/10/03 04:14:58;;;;;;;1999.90;999.90;;;;;;;;;;4992517;28;20242;-70
2023/10/03 04:17:43;;;;;;;1999.90;999.90;;;;;;;;;;5000811;28;20291;-71
2023/10/03 04:20:30;;;;;;;1999.90;999.90;;;;;;;;;;4992995;28;20703;-69
2023/10/03 04:23:15;;;;;;;1999.90;999.90;;;;;;;;;;4992303;28;20592;-71
2023/10/03 04:26:00;;;;;;;1999.90;999.90;;;;;;;;;;4992491;28;20215;-70
2023/10/03 04:28:47;;;;;;;1999.90;999.90;;;;;;;;;;4992735;28;20711;-71
2023/10/03 04:31:32;;;;;;;1999.90;999.90;;;;;;;;;;4994477;28;20223;-70
2023/10/03 04:34:20;;;;;;;1999.90;999.90;;;;;;;;;;5000503;28;20263;-70
2023/10/03 04:37:06;;;;;;;1999.90;999.90;;;;;;;;;;4992359;28;20614;-72
2023/10/03 04:39:51;;;;;;;1999.90;999.90;;;;;;;;;;4992354;28;20219;-72
2023/10/03 04:42:38;;;;;;;1999.90;999.90;;;;;;;;;;4989544;28;20215;-71
2023/10/03 04:45:25;;;;;;;1999.90;999.90;;;;;;;;;;4998120;28;20776;-70
2023/10/03 04:48:10;;;;;;;1999.90;999.90;;;;;;;;;;5003217;28;20220;-72
2023/10/03 04:50:56;;;;;;;1999.90;999.90;;;;;;;;;;4989692;28;20219;-71
2023/10/03 04:53:42;;;;;;;1999.90;999.90;;;;;;;;;;4994729;28;20239;-71
2023/10/03 04:56:27;;;;;;;1999.90;999.90;;;;;;;;;;4994978;28;20467;-71
2023/10/03 04:59:11;;;;;;;1999.90;999.90;;;;;;;;;;4992274;28;20212;-71
2023/10/03 05:01:58;;;;;;;1999.90;999.90;;;;;;;;;;4992244;28;20286;-71
2023/10/03 05:04:42;;;;;;;1999.90;999.90;;;;;;;;;;4989776;28;20531;-68
2023/10/03 05:07:28;;;;;;;1999.90;999.90;;;;;;;;;;4993088;28;20216;-68
2023/10/03 05:10:13;;;;;;;1999.90;999.90;;;;;;;;;;5000393;28;20694;-70
2023/10/03 05:12:58;;;;;;;1999.90;999.90;;;;;;;;;;5000656;28;20266;-70
2023/10/03 05:15:43;;;;;;;1999.90;999.90;;;;;;;;;;5011693;28;20202;-71
2023/10/03 05:18:30;;;;;;;1999.90;999.90;;;;;;;;;;5015618;28;20215;-71
2023/10/03 05:21:15;;;;;;;1999.90;999.90;;;;;;;;;;4993368;28;20716;-71
2023/10/03 05:24:00;;;;;;;1999.90;999.90;;;;;;;;;;4976615;28;20223;-71
2023/10/03 05:26:45;;;;;;;1999.90;999.90;;;;;;;;;;4976379;28;20219;-71
2023/10/03 05:29:30;;;;;;;1999.90;999.90;;;;;;;;;;4976656;28;20212;-71
2023/10/03 05:32:17;;;;;;;1999.90;999.90;;;;;;;;;;4976512;28;20208;-72
2023/10/03 05:35:04;;;;;;;1999.90;999.90;;;;;;;;;;4976101;28;20240;-71
2023/10/03 05:37:51;;;;;;;1999.90;999.90;;;;;;;;;;4976846;28;20744;-71
2023/10/03 05:40:35;;;;;;;1999.90;999.90;;;;;;;;;;4976398;28;20259;-71
2023/10/03 05:43:20;;;;;;;1999.90;999.90;;;;;;;;;;4976195;28;20343;-71
2023/10/03 05:46:05;;;;;;;1999.90;999.90;;;;;;;;;;4975805;28;20203;-71
2023/10/03 05:48:51;;;;;;;1999.90;999.90;;;;;;;;;;4987414;28;20703;-71
2023/10/03 05:51:39;;;;;;;1999.90;999.90;;;;;;;;;;4995590;28;20569;-72
2023/10/03 05:54:25;;;;;;;1999.90;999.90;;;;;;;;;;4994322;28;20946;-72
2023/10/03 05:57:11;;;;;;;1999.90;999.90;;;;;;;;;;4995291;28;20570;-70
2023/10/03 05:59:56;;;;;;;1999.90;999.90;;;;;;;;;;4979638;28;20239;-71
2023/10/03 06:02:41;;;;;;;1999.90;999.90;;;;;;;;;;4997340;28;20206;-71
2023/10/03 06:05:26;;;;;;;1999.90;999.90;;;;;;;;;;5004184;28;20219;-70
2023/10/03 06:08:12;;;;;;;1999.90;999.90;;;;;;;;;;5012845;28;20329;-71
2023/10/03 06:10:59;;;;;;;1999.90;999.90;;;;;;;;;;5014947;28;20292;-71
2023/10/03 06:13:45;;;;;;;1999.90;999.90;;;;;;;;;;5014609;28;20231;-71
2023/10/03 06:16:30;;;;;;;1999.90;999.90;;;;;;;;;;4994702;28;20699;-68
2023/10/03 06:19:18;;;;;;;1999.90;999.90;;;;;;;;;;4998998;28;20937;-71
2023/10/03 06:22:03;;;;;;;1999.90;999.90;;;;;;;;;;5006278;28;20277;-70
2023/10/03 06:24:50;;;;;;;1999.90;999.90;;;;;;;;;;4999994;28;20231;-70
2023/10/03 06:27:35;;;;;;;1999.90;999.90;;;;;;;;;;4994659;28;20211;-73
2023/10/03 06:30:22;;;;;;;1999.90;999.90;;;;;;;;;;4986685;28;20208;-72
2023/10/03 06:33:07;;;;;;;1999.90;999.90;;;;;;;;;;5002870;28;20610;-72
2023/10/03 06:35:52;;;;;;;1999.90;999.90;;;;;;;;;;4994235;28;20742;-71
2023/10/03 06:38:38;;;;;;;1999.90;999.90;;;;;;;;;;4994648;28;20219;-72
2023/10/03 06:41:25;;;;;;;1999.90;999.90;;;;;;;;;;5003447;28;20218;-71
2023/10/03 06:44:11;;;;;;;1999.90;999.90;;;;;;;;;;4995004;28;20231;-71
2023/10/03 06:46:56;;;;;;;1999.90;999.90;;;;;;;;;;5003604;28;20211;-71
2023/10/03 06:49:41;;;;;;;1999.90;999.90;;;;;;;;;;4994201;28;20589;-70
2023/10/03 06:52:28;;;;;;;1999.90;999.90;;;;;;;;;;4994058;28;20211;-71
2023/10/03 06:55:15;;;;;;;1999.90;999.90;;;;;;;;;;4993511;28;20229;-71
2023/10/03 06:58:01;;;;;;;1999.90;999.90;;;;;;;;;;5001693;28;20290;-73
2023/10/03 07:00:47;;;;;;;1999.90;999.90;;;;;;;;;;4988326;28;20318;-72
2023/10/03 07:03:33;;;;;;;1999.90;999.90;;;;;;;;;;4993191;28;20239;-71
2023/10/03 07:06:18;;;;;;;1999.90;999.90;;;;;;;;;;5002200;28;20219;-71
2023/10/03 07:09:07;;;;;;;1999.90;999.90;;;;;;;;;;5002242;28;20201;-71
2023/10/03 07:11:52;;;;;;;1999.90;999.90;;;;;;;;;;4978830;28;20209;-71
2023/10/03 07:14:39;;;;;;;1999.90;999.90;;;;;;;;;;4994110;28;20238;-71
2023/10/03 07:17:24;;;;;;;1999.90;999.90;;;;;;;;;;4996101;28;20711;-71
2023/10/03 07:20:10;;;;;;;1999.90;999.90;;;;;;;;;;4986043;28;20296;-71
2023/10/03 07:22:55;;;;;;;1999.90;999.90;;;;;;;;;;5000474;28;20227;-71
2023/10/03 07:25:40;;;;;;;1999.90;999.90;;;;;;;;;;4982122;28;20258;-72
2023/10/03 07:28:25;;;;;;;1999.90;999.90;;;;;;;;;;4992190;28;20218;-71
2023/10/03 07:31:13;;;;;;;1999.90;999.90;;;;;;;;;;4993546;28;20203;-75
2023/10/03 07:33:58;;;;;;;1999.90;999.90;;;;;;;;;;4988103;28;20433;-71
2023/10/03 07:36:43;;;;;;;1999.90;999.90;;;;;;;;;;4992610;28;20255;-69
2023/10/03 07:39:28;;;;;;;1999.90;999.90;;;;;;;;;;4993348;28;20576;-70
2023/10/03 07:42:14;;;;;;;1999.90;999.90;;;;;;;;;;4993063;28;20700;-70
2023/10/03 07:44:59;;;;;;;1999.90;999.90;;;;;;;;;;4993280;28;20231;-70
2023/10/03 07:47:46;;;;;;;1999.90;999.90;;;;;;;;;;4993448;28;20231;-69
2023/10/03 07:50:31;;;;;;;1999.90;999.90;;;;;;;;;;4993293;28;20708;-71
2023/10/03 07:53:17;;;;;;;1999.90;999.90;;;;;;;;;;4998634;28;20214;-69
2023/10/03 07:56:01;;;;;;;1999.90;999.90;;;;;;;;;;5001046;28;20240;-71
2023/10/03 07:58:47;;;;;;;1999.90;999.90;;;;;;;;;;4991408;28;20256;-73
2023/10/03 08:01:32;;;;;;;1999.90;999.90;;;;;;;;;;4999696;28;20210;-71
2023/10/03 08:04:19;;;;;;;1999.90;999.90;;;;;;;;;;5009848;28;20285;-70
2023/10/03 08:07:04;;;;;;;1999.90;999.90;;;;;;;;;;4997819;28;20582;-72
2023/10/03 08:09:49;;;;;;;1999.90;999.90;;;;;;;;;;4993140;28;20215;-70
2023/10/03 08:12:38;;;;;;;1999.90;999.90;;;;;;;;;;4999099;28;20783;-71
2023/10/03 08:15:24;;;;;;;1999.90;999.90;;;;;;;;;;4988765;28;20266;-72
2023/10/03 08:18:17;;;;;;;1999.90;999.90;;;;;;;;;;4999148;28;20211;-72
2023/10/03 08:21:04;;;;;;;1999.90;999.90;;;;;;;;;;4995142;28;20207;-70
2023/10/03 08:23:51;;;;;;;1999.90;999.90;;;;;;;;;;4991958;28;20425;-71
2023/10/03 08:26:37;;;;;;;1999.90;999.90;;;;;;;;;;4992630;28;20789;-70
2023/10/03 08:29:23;;;;;;;1999.90;999.90;;;;;;;;;;4992970;28;20211;-70
2023/10/03 08:32:09;;;;;;;1999.90;999.90;;;;;;;;;;4992423;28;20218;-68
2023/10/03 08:34:54;;;;;;;1999.90;999.90;;;;;;;;;;4973054;28;20231;-70
2023/10/03 08:37:40;;;;;;;1999.90;999.90;;;;;;;;;;4973469;28;20699;-71
2023/10/03 08:40:25;;;;;;;1999.90;999.90;;;;;;;;;;4973006;28;20277;-71
2023/10/03 08:43:11;;;;;;;1999.90;999.90;;;;;;;;;;4973108;28;20208;-69
2023/10/03 08:45:57;;;;;;;1999.90;999.90;;;;;;;;;;4973520;28;20295;-69
2023/10/03 08:48:43;;;;;;;1999.90;999.90;;;;;;;;;;4972324;28;20397;-70
2023/10/03 08:51:32;;;;;;;1999.90;999.90;;;;;;;;;;4972807;28;20224;-70
2023/10/03 08:54:19;;;;;;;1999.90;999.90;;;;;;;;;;4973179;28;20787;-69
2023/10/03 08:57:04;;;;;;;1999.90;999.90;;;;;;;;;;4972593;28;20687;-69
2023/10/03 08:59:49;;;;;;;1999.90;999.90;;;;;;;;;;4973060;28;20227;-69
2023/10/03 09:02:45;;;;;;;1999.90;999.90;;;;;;;;;;4973575;28;20700;-69
2023/10/03 09:05:33;;;;;;;1999.90;999.90;;;;;;;;;;4972674;28;20231;-69
2023/10/03 09:08:18;;;;;;;1999.90;999.90;;;;;;;;;;4972925;28;20236;-69
2023/10/03 09:11:13;;;;;;;1999.90;999.90;;;;;;;;;;4990382;28;20215;-69
2023/10/03 09:13:59;;;;;;;1999.90;999.90;;;;;;;;;;4984339;28;20255;-68
2023/10/03 09:16:50;;;;;;;1999.90;999.90;;;;;;;;;;4993299;28;20230;-69
2023/10/03 09:19:43;;;;;;;1999.90;999.90;;;;;;;;;;4996612;28;20590;-69
2023/10/03 09:22:30;;;;;;;1999.90;999.90;;;;;;;;;;4991680;28;20347;-69
2023/10/03 09:25:19;;;;;;;1999.90;999.90;;;;;;;;;;4991564;28;20231;-68
2023/10/03 09:28:06;;;;;;;1999.90;999.90;;;;;;;;;;4992192;28;20211;-68
2023/10/03 09:30:51;;;;;;;1999.90;999.90;;;;;;;;;;4991820;28;20227;-69
2023/10/03 09:33:39;;;;;;;1999.90;999.90;;;;;;;;;;4999927;28;20271;-69
2023/10/03 09:36:28;;;;;;;1999.90;999.90;;;;;;;;;;4990772;28;20759;-68
2023/10/03 09:39:21;;;;;;;1999.90;999.90;;;;;;;;;;5000075;28;20326;-69
2023/10/03 09:42:09;;;;;;;1999.90;999.90;;;;;;;;;;4972665;28;20281;-70
2023/10/03 09:44:58;;;;;;;1999.90;999.90;;;;;;;;;;4980625;28;20227;-69
2023/10/03 09:47:44;;;;;;;1999.90;999.90;;;;;;;;;;4996089;28;20226;-69
2023/10/03 09:50:30;;;;;;;1999.90;999.90;;;;;;;;;;4986886;28;20259;-69
2023/10/03 09:53:16;;;;;;;1999.90;999.90;;;;;;;;;;4984584;28;20213;-69
2023/10/03 09:56:08;;;;;;;1999.90;999.90;;;;;;;;;;4995355;28;20223;-69
2023/10/03 09:58:55;;;;;;;1999.90;999.90;;;;;;;;;;4983413;28;20206;-69
2023/10/03 10:01:41;;;;;;;1999.90;999.90;;;;;;;;;;5003248;28;20699;-69
2023/10/03 10:04:27;;;;;;;1999.90;999.90;;;;;;;;;;5013473;28;20222;-69
2023/10/03 10:07:17;;;;;;;1999.90;999.90;;;;;;;;;;5014819;28;20254;-69
2023/10/03 10:10:07;;;;;;;1999.90;999.90;;;;;;;;;;4999728;28;20251;-69
2023/10/03 10:13:20;;;;;;;1999.90;999.90;;;;;;;;;;4985953;28;20210;-69
2023/10/03 10:16:11;;;;;;;1999.90;999.90;;;;;;;;;;4987288;28;20248;-69
2023/10/03 10:19:01;;;;;;;1999.90;999.90;;;;;;;;;;4991287;28;20211;-69
2023/10/03 10:21:55;;;;;;;1999.90;999.90;;;;;;;;;;4994955;28;20215;-70
2023/10/03 10:24:40;;;;;;;1999.90;999.90;;;;;;;;;;4988502;28;20606;-69
2023/10/03 10:27:30;;;;;;;1999.90;999.90;;;;;;;;;;4998852;28;20406;-69
2023/10/03 10:30:15;;;;;;;1999.90;999.90;;;;;;;;;;4980763;28;20235;-69
2023/10/03 10:33:20;;;;;;;1999.90;999.90;;;;;;;;;;4988858;28;20206;-69
2023/10/03 10:36:10;;;;;;;1999.90;999.90;;;;;;;;;;4988912;28;20366;-70
2023/10/03 10:38:55;;;;;;;1999.90;999.90;;;;;;;;;;4988864;28;20215;-70
2023/10/03 10:41:41;;;;;;;1999.90;999.90;;;;;;;;;;4994421;28;20265;-70
2023/10/03 10:44:27;;;;;;;1999.90;999.90;;;;;;;;;;4993474;28;20278;-69
2023/10/03 10:47:14;;;;;;;1999.90;999.90;;;;;;;;;;4988813;28;20214;-70
2023/10/03 10:50:00;;;;;;;1999.90;999.90;;;;;;;;;;4994517;28;20206;-69
2023/10/03 10:52:53;;;;;;;1999.90;999.90;;;;;;;;;;4994212;28;20233;-69
2023/10/03 10:55:41;;;;;;;1999.90;999.90;;;;;;;;;;4993907;28;20306;-69
2023/10/03 10:58:27;;;;;;;1999.90;999.90;;;;;;;;;;4994303;28;20215;-69
2023/10/03 11:01:13;;;;;;;1999.90;999.90;;;;;;;;;;4993336;28;20695;-69
2023/10/03 11:03:59;;;;;;;1999.90;999.90;;;;;;;;;;4993907;28;20313;-69
2023/10/03 11:06:48;;;;;;;1999.90;999.90;;;;;;;;;;4986181;28;20467;-69
2023/10/03 11:09:36;;;;;;;1999.90;999.90;;;;;;;;;;4998439;28;20315;-70
2023/10/03 11:12:25;;;;;;;1999.90;999.90;;;;;;;;;;4989830;28;20216;-70
2023/10/03 11:15:12;;;;;;;1999.90;999.90;;;;;;;;;;4995641;28;20243;-68
2023/10/03 11:17:58;;;;;;;1999.90;999.90;;;;;;;;;;4994327;28;20286;-69
2023/10/03 11:20:43;;;;;;;1999.90;999.90;;;;;;;;;;4994922;28;20695;-69
2023/10/03 11:23:28;;;;;;;1999.90;999.90;;;;;;;;;;5009354;28;20384;-69
2023/10/03 11:26:14;;;;;;;1999.90;999.90;;;;;;;;;;5013232;28;20715;-69
2023/10/03 11:28:59;;;;;;;1999.90;999.90;;;;;;;;;;5013210;28;20202;-68
2023/10/03 11:31:45;;;;;;;1999.90;999.90;;;;;;;;;;5001421;28;20211;-68
2023/10/03 11:34:31;;;;;;;1999.90;999.90;;;;;;;;;;4991306;28;20231;-69
2023/10/03 11:37:33;;;;;;;1999.90;999.90;;;;;;;;;;4993201;28;20254;-69
2023/10/03 11:40:20;;;;;;;1999.90;999.90;;;;;;;;;;4988275;28;20750;-68
2023/10/03 11:43:08;;;;;;;1999.90;999.90;;;;;;;;;;4993039;28;20215;-69
2023/10/03 11:45:56;;;;;;;1999.90;999.90;;;;;;;;;;4998357;28;20211;-70
2023/10/03 11:48:41;;;;;;;1999.90;999.90;;;;;;;;;;4993407;28;20275;-69
2023/10/03 11:51:29;;;;;;;1999.90;999.90;;;;;;;;;;4988169;28;20214;-69
2023/10/03 11:54:15;;;;;;;1999.90;999.90;;;;;;;;;;4992429;28;20401;-69
2023/10/03 11:57:00;;;;;;;1999.90;999.90;;;;;;;;;;4985026;28;20216;-69
2023/10/03 11:59:46;;;;;;;1999.90;999.90;;;;;;;;;;4993088;28;20214;-69
2023/10/03 12:02:31;;;;;;;1999.90;999.90;;;;;;;;;;4993378;28;20218;-69
2023/10/03 12:05:16;;;;;;;1999.90;999.90;;;;;;;;;;4992730;28;20693;-68
2023/10/03 12:08:03;;;;;;;1999.90;999.90;;;;;;;;;;4993907;28;20283;-69
2023/10/03 12:10:49;;;;;;;1999.90;999.90;;;;;;;;;;4991366;28;20755;-68
2023/10/03 12:13:34;;;;;;;1999.90;999.90;;;;;;;;;;4992812;28;20286;-69
2023/10/03 12:16:20;;;;;;;1999.90;999.90;;;;;;;;;;4992454;28;20604;-68
2023/10/03 12:19:05;;;;;;;1999.90;999.90;;;;;;;;;;4998526;28;20951;-69
2023/10/03 12:21:51;;;;;;;1999.90;999.90;;;;;;;;;;5002828;28;20206;-67
2023/10/03 12:24:35;;;;;;;1999.90;999.90;;;;;;;;;;4981226;28;20243;-68
2023/10/03 12:27:20;;;;;;;1999.90;999.90;;;;;;;;;;4991806;28;20266;-68
2023/10/03 12:30:09;;;;;;;1999.90;999.90;;;;;;;;;;4986092;28;20218;-69
2023/10/03 12:32:55;;;;;;;1999.90;999.90;;;;;;;;;;4999763;28;20573;-69
2023/10/03 12:35:40;;;;;;;1999.90;999.90;;;;;;;;;;4992407;28;20211;-69
2023/10/03 12:38:26;;;;;;;1999.90;999.90;;;;;;;;;;4997241;28;20226;-69
2023/10/03 12:41:11;;;;;;;1999.90;999.90;;;;;;;;;;4998195;28;20214;-68
2023/10/03 12:43:56;;;;;;;1999.90;999.90;;;;;;;;;;4999090;28;20249;-69
2023/10/03 12:46:41;;;;;;;1999.90;999.90;;;;;;;;;;5006333;28;20646;-68
2023/10/03 12:49:27;;;;;;;1999.90;999.90;;;;;;;;;;4991240;28;20211;-68
2023/10/03 12:52:13;;;;;;;1999.90;999.90;;;;;;;;;;4992395;28;20758;-69
2023/10/03 12:54:59;;;;;;;1999.90;999.90;;;;;;;;;;4992200;28;20238;-69
2023/10/03 12:57:46;;;;;;;1999.90;999.90;;;;;;;;;;4991896;28;20357;-67
2023/10/03 13:00:31;;;;;;;1999.90;999.90;;;;;;;;;;4991576;28;20214;-68
2023/10/03 13:03:15;;;;;;;1999.90;999.90;;;;;;;;;;4992056;28;20711;-68
2023/10/03 13:06:02;;;;;;;1999.90;999.90;;;;;;;;;;4991835;28;20219;-68
2023/10/03 13:08:47;;;;;;;1999.90;999.90;;;;;;;;;;4991539;28;20493;-68
2023/10/03 13:11:32;;;;;;;1999.90;999.90;;;;;;;;;;4992300;28;20699;-68
2023/10/03 13:14:17;;;;;;;1999.90;999.90;;;;;;;;;;4992122;28;20362;-68
2023/10/03 13:17:02;;;;;;;1999.90;999.90;;;;;;;;;;4990854;28;20286;-68
2023/10/03 13:19:47;;;;;;;1999.90;999.90;;;;;;;;;;4992081;28;20282;-68
2023/10/03 13:22:34;;;;;;;1999.90;999.90;;;;;;;;;;4992036;28;20225;-69
2023/10/03 13:25:20;;;;;;;1999.90;999.90;;;;;;;;;;4991459;28;20246;-68
2023/10/03 13:28:10;;;;;;;1999.90;999.90;;;;;;;;;;4992130;28;20699;-68
2023/10/03 13:30:56;;;;;;;1999.90;999.90;;;;;;;;;;4991714;28;20879;-69
2023/10/03 13:33:41;;;;;;;1999.90;999.90;;;;;;;;;;4988550;28;20419;-68
2023/10/03 13:36:26;;;;;;;1999.90;999.90;;;;;;;;;;4985992;28;20275;-69
2023/10/03 13:39:13;;;;;;;1999.90;999.90;;;;;;;;;;4995567;28;20267;-67
2023/10/03 13:41:58;;;;;;;1999.90;999.90;;;;;;;;;;4995424;28;20703;-68
2023/10/03 13:44:43;;;;;;;1999.90;999.90;;;;;;;;;;4995565;28;20255;-69
2023/10/03 13:47:29;;;;;;;1999.90;999.90;;;;;;;;;;4983539;28;20215;-68
2023/10/03 13:50:17;;;;;;;1999.90;999.90;;;;;;;;;;4989959;28;20220;-68
2023/10/03 13:53:04;;;;;;;1999.90;999.90;;;;;;;;;;4995265;28;20706;-68
2023/10/03 13:55:52;;;;;;;1999.90;999.90;;;;;;;;;;4992404;28;20235;-68
2023/10/03 13:58:37;;;;;;;1999.90;999.90;;;;;;;;;;4995490;28;20298;-68
2023/10/03 14:01:22;;;;;;;1999.90;999.90;;;;;;;;;;4985577;28;20813;-68
2023/10/03 14:04:09;;;;;;;1999.90;999.90;;;;;;;;;;4987875;28;20774;-68
2023/10/03 14:06:54;;;;;;;1999.90;999.90;;;;;;;;;;4992169;28;20582;-68
2023/10/03 14:09:41;;;;;;;1999.90;999.90;;;;;;;;;;4977077;28;20686;-68
2023/10/03 14:12:27;;;;;;;1999.90;999.90;;;;;;;;;;4989047;28;20327;-69
2023/10/03 14:15:13;;;;;;;1999.90;999.90;;;;;;;;;;4994926;28;20227;-68
2023/10/03 14:17:58;;;;;;;1999.90;999.90;;;;;;;;;;4994790;28;20334;-68
2023/10/03 14:20:43;;;;;;;1999.90;999.90;;;;;;;;;;4983528;28;20292;-68
2023/10/03 14:23:31;;;;;;;1999.90;999.90;;;;;;;;;;4983778;28;20434;-68
2023/10/03 14:26:16;;;;;;;1999.90;999.90;;;;;;;;;;4989373;28;20208;-69
2023/10/03 14:29:04;;;;;;;1999.90;999.90;;;;;;;;;;5001374;28;20227;-69
2023/10/03 14:31:49;;;;;;;1999.90;999.90;;;;;;;;;;4994633;28;20203;-69
2023/10/03 14:34:34;;;;;;;1999.90;999.90;;;;;;;;;;4997554;28;20235;-69
2023/10/03 14:37:19;;;;;;;1999.90;999.90;;;;;;;;;;4975016;28;20607;-69
2023/10/03 14:40:09;;;;;;;1999.90;999.90;;;;;;;;;;4975433;28;20285;-69
2023/10/03 14:42:54;;;;;;;1999.90;999.90;;;;;;;;;;4975024;28;20689;-68
2023/10/03 14:45:40;;;;;;;1999.90;999.90;;;;;;;;;;4984839;28;20238;-69
2023/10/03 14:48:25;;;;;;;1999.90;999.90;;;;;;;;;;4983812;28;20987;-69
2023/10/03 14:51:12;;;;;;;1999.90;999.90;;;;;;;;;;4994202;28;20222;-69
2023/10/03 14:53:57;;;;;;;1999.90;999.90;;;;;;;;;;4987824;28;20702;-68
2023/10/03 14:56:42;;;;;;;1999.90;999.90;;;;;;;;;;5002115;28;20250;-69
2023/10/03 14:59:26;;;;;;;1999.90;999.90;;;;;;;;;;4974977;28;20231;-68
2023/10/03 15:02:14;;;;;;;1999.90;999.90;;;;;;;;;;4974911;28;20212;-69
2023/10/03 15:04:59;;;;;;;1999.90;999.90;;;;;;;;;;4991681;28;20293;-68
2023/10/03 15:07:43;;;;;;;1999.90;999.90;;;;;;;;;;5005622;28;20206;-67
2023/10/03 15:10:29;;;;;;;1999.90;999.90;;;;;;;;;;5013989;28;20238;-68
2023/10/03 15:13:14;;;;;;;1999.90;999.90;;;;;;;;;;5013531;28;20210;-68
2023/10/03 15:15:59;;;;;;;1999.90;999.90;;;;;;;;;;5002145;28;20638;-68
2023/10/03 15:18:45;;;;;;;1999.90;999.90;;;;;;;;;;4994514;28;20198;-69
2023/10/03 15:21:30;;;;;;;1999.90;999.90;;;;;;;;;;4987700;28;20214;-68
2023/10/03 15:24:15;;;;;;;1999.90;999.90;;;;;;;;;;4993471;28;20363;-69
2023/10/03 15:27:00;;;;;;;1999.90;999.90;;;;;;;;;;4994291;28;20207;-68
2023/10/03 15:29:45;;;;;;;1999.90;999.90;;;;;;;;;;4994208;28;20722;-68
2023/10/03 15:32:30;;;;;;;1999.90;999.90;;;;;;;;;;4988478;28;20212;-67
2023/10/03 15:35:16;;;;;;;1999.90;999.90;;;;;;;;;;4992668;28;20243;-68
2023/10/03 15:38:05;;;;;;;1999.90;999.90;;;;;;;;;;4992327;28;20570;-68
2023/10/03 15:40:50;;;;;;;1999.90;999.90;;;;;;;;;;4997618;28;20215;-69
2023/10/03 15:43:35;;;;;;;1999.90;999.90;;;;;;;;;;4973584;28;20242;-68
2023/10/03 15:46:20;;;;;;;1999.90;999.90;;;;;;;;;;5004342;28;20226;-69
2023/10/03 15:49:05;;;;;;;1999.90;999.90;;;;;;;;;;5001611;28;20200;-68
2023/10/03 15:51:51;;;;;;;1999.90;999.90;;;;;;;;;;5013465;28;20686;-68